createdAt,value
2018-08-30T06:58:17.925Z,172.00
2018-08-30T06:59:16.118Z,464.00
2018-08-30T07:00:16.225Z,172.00
2018-08-30T07:01:18.260Z,164.00
2018-08-30T07:02:16.437Z,152.00
2018-08-30T07:03:17.939Z,164.00
2018-08-30T07:04:16.754Z,164.00
2018-08-30T07:05:16.908Z,164.00
2018-08-30T07:06:17.756Z,152.00
2018-08-30T07:07:16.999Z,164.00
2018-08-30T07:08:17.200Z,168.00
2018-08-30T07:09:17.281Z,164.00
2018-08-30T07:10:20.197Z,164.00
2018-08-30T07:11:20.156Z,164.00
2018-08-30T07:12:17.487Z,172.00
2018-08-30T07:13:17.605Z,164.00
2018-08-30T07:14:17.788Z,168.00
2018-08-30T07:15:17.889Z,188.00
2018-08-30T07:16:17.989Z,188.00
2018-08-30T07:17:20.156Z,192.00
2018-08-30T07:18:18.223Z,192.00
2018-08-30T07:19:18.379Z,188.00
2018-08-30T07:20:18.491Z,192.00
2018-08-30T07:21:18.606Z,196.00
2018-08-30T07:22:18.720Z,196.00
2018-08-30T07:23:18.852Z,200.00
2018-08-30T07:24:19.087Z,204.00
2018-08-30T07:25:19.127Z,200.00
2018-08-30T07:26:19.238Z,488.00
2018-08-30T07:27:19.353Z,164.00
2018-08-30T07:28:19.473Z,196.00
2018-08-30T07:29:19.600Z,196.00
2018-08-30T07:30:19.708Z,156.00
2018-08-30T07:31:19.828Z,168.00
2018-08-30T07:32:19.947Z,152.00
2018-08-30T07:33:20.063Z,160.00
2018-08-30T07:34:20.238Z,152.00
2018-08-30T07:35:20.528Z,168.00
2018-08-30T07:36:22.352Z,168.00
2018-08-30T07:37:24.073Z,168.00
2018-08-30T07:39:23.924Z,164.00
2018-08-30T07:40:28.724Z,180.00
2018-08-30T07:41:23.671Z,192.00
2018-08-30T07:42:24.751Z,164.00
2018-08-30T07:43:24.691Z,164.00
2018-08-30T07:44:38.288Z,188.00
2018-08-30T07:45:23.337Z,200.00
2018-08-30T07:46:23.946Z,188.00
2018-08-30T07:47:21.603Z,176.00
2018-08-30T07:48:23.303Z,180.00
2018-08-30T07:49:25.666Z,172.00
2018-08-30T07:50:25.164Z,184.00
2018-08-30T07:52:25.688Z,176.00
2018-08-30T07:53:25.201Z,204.00
2018-08-30T07:54:24.239Z,188.00
2018-08-30T07:55:22.564Z,184.00
2018-08-30T07:56:22.990Z,188.00
2018-08-30T07:57:27.806Z,184.00
2018-08-30T07:58:23.902Z,200.00
2018-08-30T07:59:26.165Z,208.00
2018-08-30T08:00:23.874Z,212.00
2018-08-30T08:01:25.161Z,216.00
2018-08-30T08:02:23.525Z,228.00
2018-08-30T08:03:23.693Z,244.00
2018-08-30T08:04:23.818Z,244.00
2018-08-30T08:05:26.953Z,260.00
2018-08-30T08:06:23.933Z,248.00
2018-08-30T08:07:28.186Z,240.00
2018-08-30T08:08:24.126Z,232.00
2018-08-30T08:09:24.342Z,236.00
2018-08-30T08:10:26.328Z,236.00
2018-08-30T08:11:30.219Z,236.00
2018-08-30T08:12:24.978Z,244.00
2018-08-30T08:13:25.824Z,260.00
2018-08-30T08:14:24.958Z,280.00
2018-08-30T08:15:25.066Z,280.00
2018-08-30T08:16:25.268Z,268.00
2018-08-30T08:17:25.276Z,268.00
2018-08-30T08:18:26.446Z,272.00
2018-08-30T08:19:25.537Z,276.00
2018-08-30T08:20:25.575Z,240.00
2018-08-30T08:21:25.695Z,272.00
2018-08-30T08:22:25.860Z,284.00
2018-08-30T08:23:28.028Z,284.00
2018-08-30T08:24:26.014Z,276.00
2018-08-30T08:25:26.451Z,272.00
2018-08-30T08:26:26.429Z,268.00
2018-08-30T08:27:26.484Z,276.00
2018-08-30T08:28:28.512Z,268.00
2018-08-30T08:29:27.753Z,292.00
2018-08-30T08:30:27.720Z,284.00
2018-08-30T08:31:29.831Z,328.00
2018-08-30T08:32:27.893Z,320.00
2018-08-30T08:33:29.749Z,308.00
2018-08-30T08:34:30.660Z,312.00
2018-08-30T08:35:27.579Z,316.00
2018-08-30T08:36:27.567Z,328.00
2018-08-30T08:37:27.553Z,340.00
2018-08-30T08:38:28.660Z,348.00
2018-08-30T08:39:27.827Z,348.00
2018-08-30T08:40:30.665Z,364.00
2018-08-30T08:41:28.308Z,368.00
2018-08-30T08:42:28.308Z,368.00
2018-08-30T08:43:34.660Z,368.00
2018-08-30T08:44:28.395Z,360.00
2018-08-30T08:45:28.739Z,360.00
2018-08-30T08:46:28.618Z,324.00
2018-08-30T08:47:28.918Z,316.00
2018-08-30T08:48:29.896Z,288.00
2018-08-30T08:49:30.668Z,264.00
2018-08-30T08:50:30.200Z,304.00
2018-08-30T08:51:29.788Z,400.00
2018-08-30T08:53:38.523Z,480.00
2018-08-30T08:54:29.971Z,532.00
2018-08-30T08:55:37.375Z,244.00
2018-08-30T08:56:30.212Z,332.00
2018-08-30T08:57:32.034Z,496.00
2018-08-30T08:58:31.001Z,500.00
2018-08-30T08:59:30.955Z,472.00
2018-08-30T09:00:31.239Z,524.00
2018-08-30T09:01:30.690Z,512.00
2018-08-30T09:02:30.567Z,508.00
2018-08-30T09:03:30.746Z,484.00
2018-08-30T09:04:30.714Z,448.00
2018-08-30T09:05:31.255Z,452.00
2018-08-30T09:06:31.538Z,360.00
2018-08-30T09:07:33.835Z,312.00
2018-08-30T09:08:33.573Z,384.00
2018-08-30T09:09:31.223Z,420.00
2018-08-30T09:10:35.051Z,404.00
2018-08-30T09:11:32.372Z,416.00
2018-08-30T09:12:32.184Z,428.00
2018-08-30T09:13:34.703Z,408.00
2018-08-30T09:14:32.810Z,368.00
2018-08-30T09:15:33.162Z,364.00
2018-08-30T09:16:35.184Z,348.00
2018-08-30T09:17:32.256Z,272.00
2018-08-30T09:18:32.984Z,468.00
2018-08-30T09:19:35.749Z,420.00
2018-08-30T09:20:33.333Z,24.00
2018-08-30T09:21:32.847Z,396.00
2018-08-30T09:22:33.961Z,392.00
2018-08-30T09:23:32.966Z,364.00
2018-08-30T09:24:33.117Z,300.00
2018-08-30T09:25:38.231Z,356.00
2018-08-30T09:26:36.561Z,304.00
2018-08-30T09:27:41.703Z,360.00
2018-08-30T09:28:34.163Z,360.00
2018-08-30T09:29:34.310Z,380.00
2018-08-30T09:30:34.333Z,412.00
2018-08-30T09:31:35.671Z,452.00
2018-08-30T09:32:34.140Z,456.00
2018-08-30T09:33:34.448Z,480.00
2018-08-30T09:34:34.329Z,468.00
2018-08-30T09:35:38.240Z,312.00
2018-08-30T09:36:34.775Z,316.00
2018-08-30T09:38:41.818Z,404.00
2018-08-30T09:39:35.841Z,584.00
2018-08-30T09:40:37.667Z,536.00
2018-08-30T09:41:36.166Z,564.00
2018-08-30T09:42:35.337Z,572.00
2018-08-30T09:43:35.451Z,560.00
2018-08-30T09:44:35.890Z,528.00
2018-08-30T09:45:35.678Z,516.00
2018-08-30T09:46:35.795Z,520.00
2018-08-30T09:47:43.799Z,504.00
2018-08-30T09:48:36.096Z,544.00
2018-08-30T09:49:36.193Z,520.00
2018-08-30T09:50:36.307Z,532.00
2018-08-30T09:51:40.196Z,496.00
2018-08-30T09:52:38.766Z,472.00
2018-08-30T09:53:39.700Z,412.00
2018-08-30T09:54:39.218Z,392.00
2018-08-30T09:55:37.756Z,412.00
2018-08-30T09:56:38.503Z,432.00
2018-08-30T09:57:42.565Z,388.00
2018-08-30T09:58:37.896Z,428.00
2018-08-30T09:59:40.722Z,432.00
2018-08-30T10:00:40.365Z,492.00
2018-08-30T10:01:37.935Z,484.00
2018-08-30T10:02:37.724Z,452.00
2018-08-30T10:03:37.796Z,480.00
2018-08-30T10:04:39.225Z,476.00
2018-08-30T10:05:37.898Z,456.00
2018-08-30T10:06:38.929Z,468.00
2018-08-30T10:07:40.996Z,516.00
2018-08-30T10:08:39.281Z,468.00
2018-08-30T10:09:39.409Z,376.00
2018-08-30T10:10:38.772Z,484.00
2018-08-30T10:11:39.715Z,444.00
2018-08-30T10:12:38.961Z,324.00
2018-08-30T10:13:39.903Z,320.00
2018-08-30T10:14:40.369Z,296.00
2018-08-30T10:15:48.239Z,296.00
2018-08-30T10:17:44.546Z,272.00
2018-08-30T10:18:39.599Z,256.00
2018-08-30T10:19:39.502Z,264.00
2018-08-30T10:20:39.611Z,252.00
2018-08-30T10:21:39.729Z,256.00
2018-08-30T10:22:39.842Z,256.00
2018-08-30T10:23:39.992Z,252.00
2018-08-30T10:24:40.134Z,256.00
2018-08-30T10:25:40.241Z,252.00
2018-08-30T10:26:40.411Z,232.00
2018-08-30T10:27:40.565Z,232.00
2018-08-30T10:28:40.705Z,224.00
2018-08-30T10:29:40.835Z,220.00
2018-08-30T10:30:40.950Z,240.00
2018-08-30T10:31:41.152Z,248.00
2018-08-30T10:32:42.673Z,228.00
2018-08-30T10:33:41.330Z,204.00
2018-08-30T10:34:43.126Z,248.00
2018-08-30T10:35:44.199Z,260.00
2018-08-30T10:36:42.447Z,260.00
2018-08-30T10:37:41.952Z,256.00
2018-08-30T10:38:41.978Z,360.00
2018-08-30T10:39:43.161Z,352.00
2018-08-30T10:40:42.151Z,340.00
2018-08-30T10:41:42.329Z,260.00
2018-08-30T10:42:42.448Z,344.00
2018-08-30T10:43:42.577Z,344.00
2018-08-30T10:44:46.700Z,372.00
2018-08-30T10:45:46.281Z,512.00
2018-08-30T10:46:42.982Z,364.00
2018-08-30T10:47:48.261Z,280.00
2018-08-30T10:48:44.842Z,288.00
2018-08-30T10:49:43.389Z,272.00
2018-08-30T10:50:44.376Z,248.00
2018-08-30T10:51:43.679Z,268.00
2018-08-30T10:52:45.700Z,200.00
2018-08-30T10:53:44.794Z,212.00
2018-08-30T10:54:43.948Z,216.00
2018-08-30T10:55:44.741Z,228.00
2018-08-30T10:56:44.251Z,312.00
2018-08-30T10:57:44.392Z,364.00
2018-08-30T10:58:44.482Z,256.00
2018-08-30T10:59:44.608Z,268.00
2018-08-30T11:00:44.725Z,260.00
2018-08-30T11:01:44.837Z,256.00
2018-08-30T11:02:45.012Z,264.00
2018-08-30T11:03:45.118Z,224.00
2018-08-30T11:04:46.201Z,256.00
2018-08-30T11:05:45.410Z,192.00
2018-08-30T11:06:45.427Z,240.00
2018-08-30T11:07:45.542Z,216.00
2018-08-30T11:08:45.658Z,212.00
2018-08-30T11:09:45.842Z,200.00
2018-08-30T11:10:45.948Z,216.00
2018-08-30T11:11:46.785Z,204.00
2018-08-30T11:12:46.199Z,204.00
2018-08-30T11:13:47.202Z,192.00
2018-08-30T11:14:47.603Z,196.00
2018-08-30T11:15:46.531Z,188.00
2018-08-30T11:16:46.824Z,184.00
2018-08-30T11:17:46.806Z,176.00
2018-08-30T11:18:46.953Z,212.00
2018-08-30T11:19:47.097Z,212.00
2018-08-30T11:20:47.232Z,212.00
2018-08-30T11:21:47.502Z,208.00
2018-08-30T11:22:47.620Z,216.00
2018-08-30T11:23:48.018Z,224.00
2018-08-30T11:24:47.816Z,224.00
2018-08-30T11:25:47.831Z,224.00
2018-08-30T11:26:47.928Z,228.00
2018-08-30T11:27:48.065Z,224.00
2018-08-30T11:28:49.703Z,220.00
2018-08-30T11:29:48.414Z,220.00
2018-08-30T11:30:48.520Z,216.00
2018-08-30T11:31:49.443Z,220.00
2018-08-30T11:32:49.036Z,220.00
2018-08-30T11:33:49.210Z,232.00
2018-08-30T11:34:48.982Z,232.00
2018-08-30T11:35:49.237Z,232.00
2018-08-30T11:36:49.266Z,236.00
2018-08-30T11:37:49.343Z,240.00
2018-08-30T11:38:49.428Z,240.00
2018-08-30T11:39:49.792Z,240.00
2018-08-30T11:40:50.658Z,244.00
2018-08-30T11:41:50.812Z,244.00
2018-08-30T11:42:52.712Z,248.00
2018-08-30T11:43:50.109Z,248.00
2018-08-30T11:44:51.705Z,248.00
2018-08-30T11:45:50.074Z,240.00
2018-08-30T11:46:50.434Z,244.00
2018-08-30T11:47:51.292Z,240.00
2018-08-30T11:48:50.411Z,236.00
2018-08-30T11:49:52.228Z,232.00
2018-08-30T11:50:50.834Z,252.00
2018-08-30T11:51:50.713Z,256.00
2018-08-30T11:52:50.825Z,256.00
2018-08-30T11:53:50.969Z,264.00
2018-08-30T11:54:51.273Z,272.00
2018-08-30T11:55:51.344Z,256.00
2018-08-30T11:56:51.969Z,240.00
2018-08-30T11:57:52.431Z,264.00
2018-08-30T11:58:54.215Z,264.00
2018-08-30T11:59:52.803Z,256.00
2018-08-30T12:00:52.882Z,220.00
2018-08-30T12:01:51.873Z,232.00
2018-08-30T12:02:51.989Z,260.00
2018-08-30T12:03:52.948Z,268.00
2018-08-30T12:04:52.207Z,276.00
2018-08-30T12:05:52.844Z,280.00
2018-08-30T12:06:52.565Z,312.00
2018-08-30T12:07:52.549Z,320.00
2018-08-30T12:08:52.632Z,308.00
2018-08-30T12:09:53.730Z,352.00
2018-08-30T12:10:54.094Z,380.00
2018-08-30T12:11:54.914Z,348.00
2018-08-30T12:12:53.261Z,312.00
2018-08-30T12:13:53.264Z,392.00
2018-08-30T12:14:53.316Z,332.00
2018-08-30T12:15:53.604Z,344.00
2018-08-30T12:16:57.289Z,400.00
2018-08-30T12:17:53.560Z,404.00
2018-08-30T12:18:53.735Z,420.00
2018-08-30T12:19:54.752Z,492.00
2018-08-30T12:20:53.918Z,412.00
2018-08-30T12:21:54.277Z,392.00
2018-08-30T12:22:54.227Z,364.00
2018-08-30T12:23:54.430Z,376.00
2018-08-30T12:24:55.257Z,364.00
2018-08-30T12:25:55.055Z,348.00
2018-08-30T12:26:55.209Z,312.00
2018-08-30T12:27:54.752Z,308.00
2018-08-30T12:28:59.819Z,308.00
2018-08-30T12:29:55.027Z,288.00
2018-08-30T12:30:55.888Z,280.00
2018-08-30T12:31:55.167Z,272.00
2018-08-30T12:32:55.453Z,304.00
2018-08-30T12:33:55.557Z,288.00
2018-08-30T12:34:55.432Z,308.00
2018-08-30T12:35:55.787Z,292.00
2018-08-30T12:36:55.739Z,336.00
2018-08-30T12:38:03.325Z,308.00
2018-08-30T12:38:57.179Z,308.00
2018-08-30T12:39:57.396Z,340.00
2018-08-30T12:40:56.858Z,320.00
2018-08-30T12:41:56.762Z,312.00
2018-08-30T12:42:57.536Z,324.00
2018-08-30T12:44:02.890Z,376.00
2018-08-30T12:44:57.079Z,392.00
2018-08-30T12:46:03.834Z,356.00
2018-08-30T12:47:01.277Z,388.00
2018-08-30T12:47:57.546Z,388.00
2018-08-30T12:49:06.307Z,388.00
2018-08-30T12:49:57.898Z,316.00
2018-08-30T12:50:58.140Z,336.00
2018-08-30T12:51:57.571Z,360.00
2018-08-30T12:52:57.655Z,344.00
2018-08-30T12:53:57.816Z,328.00
2018-08-30T12:54:58.126Z,324.00
2018-08-30T12:56:19.135Z,328.00
2018-08-30T12:56:59.866Z,348.00
2018-08-30T12:57:58.277Z,328.00
2018-08-30T12:58:59.331Z,296.00
2018-08-30T12:59:58.633Z,300.00
2018-08-30T13:00:59.013Z,276.00
2018-08-30T13:01:58.743Z,320.00
2018-08-30T13:02:58.922Z,352.00
2018-08-30T13:04:06.594Z,316.00
2018-08-30T13:05:02.466Z,360.00
2018-08-30T13:05:59.548Z,372.00
2018-08-30T13:06:59.379Z,380.00
2018-08-30T13:08:00.510Z,356.00
2018-08-30T13:09:03.820Z,248.00
2018-08-30T13:09:59.726Z,312.00
2018-08-30T13:11:00.195Z,376.00
2018-08-30T13:12:00.290Z,316.00
2018-08-30T13:13:00.295Z,316.00
2018-08-30T13:14:00.803Z,352.00
2018-08-30T13:15:00.623Z,364.00
2018-08-30T13:16:00.538Z,352.00
2018-08-30T13:17:00.647Z,292.00
2018-08-30T13:18:00.644Z,276.00
2018-08-30T13:19:01.411Z,272.00
2018-08-30T13:20:00.942Z,272.00
2018-08-30T13:21:01.154Z,260.00
2018-08-30T13:22:01.353Z,296.00
2018-08-30T13:23:01.484Z,256.00
2018-08-30T13:24:02.559Z,288.00
2018-08-30T13:25:01.778Z,244.00
2018-08-30T13:26:01.662Z,232.00
2018-08-30T13:27:01.841Z,200.00
2018-08-30T13:28:01.876Z,200.00
2018-08-30T13:29:02.008Z,240.00
2018-08-30T13:30:02.316Z,244.00
2018-08-30T13:31:07.732Z,252.00
2018-08-30T13:32:02.761Z,308.00
2018-08-30T13:33:02.737Z,280.00
2018-08-30T13:34:03.079Z,304.00
2018-08-30T13:35:02.954Z,236.00
2018-08-30T13:36:03.308Z,240.00
2018-08-30T13:37:05.104Z,248.00
2018-08-30T13:38:03.367Z,256.00
2018-08-30T13:39:04.028Z,268.00
2018-08-30T13:40:03.697Z,276.00
2018-08-30T13:41:03.775Z,280.00
2018-08-30T13:42:03.987Z,292.00
2018-08-30T13:43:03.922Z,336.00
2018-08-30T13:44:03.995Z,320.00
2018-08-30T13:45:04.308Z,316.00
2018-08-30T13:46:04.286Z,316.00
2018-08-30T13:47:04.837Z,332.00
2018-08-30T13:48:09.100Z,360.00
2018-08-30T13:49:05.706Z,344.00
2018-08-30T13:50:04.795Z,344.00
2018-08-30T13:51:05.792Z,340.00
2018-08-30T13:52:05.145Z,332.00
2018-08-30T13:53:05.150Z,324.00
2018-08-30T13:54:05.127Z,320.00
2018-08-30T13:55:05.302Z,328.00
2018-08-30T13:56:05.262Z,244.00
2018-08-30T13:57:05.580Z,260.00
2018-08-30T13:58:05.580Z,220.00
2018-08-30T13:59:05.843Z,224.00
2018-08-30T14:00:14.119Z,296.00
2018-08-30T14:01:06.277Z,320.00
2018-08-30T14:02:05.960Z,300.00
2018-08-30T14:03:05.990Z,196.00
2018-08-30T14:04:06.163Z,252.00
2018-08-30T14:05:06.391Z,264.00
2018-08-30T14:06:06.585Z,280.00
2018-08-30T14:07:13.515Z,296.00
2018-08-30T14:08:06.697Z,312.00
2018-08-30T14:09:07.575Z,288.00
2018-08-30T14:10:06.952Z,280.00
2018-08-30T14:11:07.196Z,252.00
2018-08-30T14:12:07.329Z,292.00
2018-08-30T14:13:07.302Z,292.00
2018-08-30T14:14:09.036Z,340.00
2018-08-30T14:15:09.343Z,316.00
2018-08-30T14:16:07.343Z,308.00
2018-08-30T14:17:07.572Z,316.00
2018-08-30T14:18:07.970Z,320.00
2018-08-30T14:19:07.858Z,252.00
2018-08-30T14:20:11.091Z,272.00
2018-08-30T14:21:08.082Z,264.00
2018-08-30T14:22:09.202Z,264.00
2018-08-30T14:23:08.380Z,264.00
2018-08-30T14:24:08.457Z,268.00
2018-08-30T14:25:09.348Z,276.00
2018-08-30T14:26:08.769Z,280.00
2018-08-30T14:27:08.933Z,276.00
2018-08-30T14:28:09.070Z,276.00
2018-08-30T14:29:09.061Z,304.00
2018-08-30T14:30:09.175Z,324.00
2018-08-30T14:31:09.292Z,308.00
2018-08-30T14:32:09.410Z,276.00
2018-08-30T14:33:09.619Z,288.00
2018-08-30T14:34:09.693Z,292.00
2018-08-30T14:35:09.898Z,132.00
2018-08-30T14:36:09.906Z,252.00
2018-08-30T14:37:11.814Z,248.00
2018-08-30T14:38:10.440Z,216.00
2018-08-30T14:39:10.378Z,320.00
2018-08-30T14:40:10.500Z,336.00
2018-08-30T14:41:10.790Z,612.00
2018-08-30T14:42:10.656Z,628.00
2018-08-30T14:43:10.791Z,628.00
2018-08-30T14:44:11.126Z,620.00
2018-08-30T14:45:11.090Z,472.00
2018-08-30T14:46:11.200Z,624.00
